sensor_id;sensor_type;location;lat;lon;timestamp;temperature;humidity
45207;DHT22;30950;53.086;21.576;2022-08-27T00:01:22;21.00;99.90
45207;DHT22;30950;53.086;21.576;2022-08-27T00:03:52;20.90;99.90
45207;DHT22;30950;53.086;21.576;2022-08-27T00:06:20;20.90;99.90
45207;DHT22;30950;53.086;21.576;2022-08-27T00:08:48;20.80;99.90
45207;DHT22;30950;53.086;21.576;2022-08-27T00:11:17;20.80;99.90
45207;DHT22;30950;53.086;21.576;2022-08-27T00:13:45;20.70;99.90
45207;DHT22;30950;53.086;21.576;2022-08-27T00:16:15;20.60;99.90
45207;DHT22;30950;53.086;21.576;2022-08-27T00:18:44;20.60;99.90
45207;DHT22;30950;53.086;21.576;2022-08-27T00:21:16;20.60;99.90
45207;DHT22;30950;53.086;21.576;2022-08-27T00:23:44;20.60;99.90
45207;DHT22;30950;53.086;21.576;2022-08-27T00:26:12;20.50;99.90
45207;DHT22;30950;53.086;21.576;2022-08-27T00:28:41;20.50;99.90
45207;DHT22;30950;53.086;21.576;2022-08-27T00:31:09;20.50;99.90
45207;DHT22;30950;53.086;21.576;2022-08-27T00:33:39;20.50;99.90
45207;DHT22;30950;53.086;21.576;2022-08-27T00:36:07;20.50;99.90
45207;DHT22;30950;53.086;21.576;2022-08-27T00:38:35;20.40;99.90
45207;DHT22;30950;53.086;21.576;2022-08-27T00:41:06;20.40;99.90
45207;DHT22;30950;53.086;21.576;2022-08-27T00:43:51;20.40;99.90
45207;DHT22;30950;53.086;21.576;2022-08-27T00:49:00;20.30;99.90
45207;DHT22;30950;53.086;21.576;2022-08-27T00:51:29;20.30;99.90
45207;DHT22;30950;53.086;21.576;2022-08-27T00:53:58;20.20;99.90
45207;DHT22;30950;53.086;21.576;2022-08-27T00:56:30;20.20;99.90
45207;DHT22;30950;53.086;21.576;2022-08-27T00:59:01;20.20;99.90
45207;DHT22;30950;53.086;21.576;2022-08-27T01:01:31;20.20;99.90
45207;DHT22;30950;53.086;21.576;2022-08-27T01:04:03;20.30;99.90
45207;DHT22;30950;53.086;21.576;2022-08-27T01:06:35;20.30;99.90
45207;DHT22;30950;53.086;21.576;2022-08-27T01:09:12;20.30;99.90
45207;DHT22;30950;53.086;21.576;2022-08-27T01:11:41;20.30;99.90
45207;DHT22;30950;53.086;21.576;2022-08-27T01:14:09;20.30;99.90
45207;DHT22;30950;53.086;21.576;2022-08-27T01:16:40;20.30;99.90
45207;DHT22;30950;53.086;21.576;2022-08-27T01:19:56;20.20;99.90
45207;DHT22;30950;53.086;21.576;2022-08-27T01:25:00;20.10;99.90
45207;DHT22;30950;53.086;21.576;2022-08-27T01:27:30;20.10;99.90
45207;DHT22;30950;53.086;21.576;2022-08-27T01:29:58;20.00;99.90
45207;DHT22;30950;53.086;21.576;2022-08-27T01:32:29;20.00;99.90
45207;DHT22;30950;53.086;21.576;2022-08-27T01:34:58;20.00;99.90
45207;DHT22;30950;53.086;21.576;2022-08-27T01:37:26;19.90;99.90
45207;DHT22;30950;53.086;21.576;2022-08-27T01:39:55;19.90;99.90
45207;DHT22;30950;53.086;21.576;2022-08-27T01:42:36;19.80;99.90
45207;DHT22;30950;53.086;21.576;2022-08-27T01:45:08;19.80;99.90
45207;DHT22;30950;53.086;21.576;2022-08-27T01:47:36;19.80;99.90
45207;DHT22;30950;53.086;21.576;2022-08-27T01:50:13;19.70;99.90
45207;DHT22;30950;53.086;21.576;2022-08-27T01:52:41;19.70;99.90
45207;DHT22;30950;53.086;21.576;2022-08-27T01:55:10;19.60;99.90
45207;DHT22;30950;53.086;21.576;2022-08-27T01:57:39;19.60;99.90
45207;DHT22;30950;53.086;21.576;2022-08-27T02:00:12;19.60;99.90
45207;DHT22;30950;53.086;21.576;2022-08-27T02:02:40;19.60;99.90
45207;DHT22;30950;53.086;21.576;2022-08-27T02:05:09;19.60;99.90
45207;DHT22;30950;53.086;21.576;2022-08-27T02:07:37;19.50;99.90
45207;DHT22;30950;53.086;21.576;2022-08-27T02:10:07;19.40;99.90
45207;DHT22;30950;53.086;21.576;2022-08-27T02:12:35;19.50;99.90
45207;DHT22;30950;53.086;21.576;2022-08-27T02:15:04;19.40;99.90
45207;DHT22;30950;53.086;21.576;2022-08-27T02:17:31;19.40;99.90
45207;DHT22;30950;53.086;21.576;2022-08-27T02:19:59;19.30;99.90
45207;DHT22;30950;53.086;21.576;2022-08-27T02:22:27;19.30;99.90
45207;DHT22;30950;53.086;21.576;2022-08-27T02:24:54;19.30;99.90
45207;DHT22;30950;53.086;21.576;2022-08-27T02:27:22;19.30;99.90
45207;DHT22;30950;53.086;21.576;2022-08-27T02:29:50;19.30;99.90
45207;DHT22;30950;53.086;21.576;2022-08-27T02:32:18;19.30;99.90
45207;DHT22;30950;53.086;21.576;2022-08-27T02:34:58;19.30;99.90
45207;DHT22;30950;53.086;21.576;2022-08-27T02:37:27;19.20;99.90
45207;DHT22;30950;53.086;21.576;2022-08-27T02:39:54;19.20;99.90
45207;DHT22;30950;53.086;21.576;2022-08-27T02:42:22;19.20;99.90
45207;DHT22;30950;53.086;21.576;2022-08-27T02:44:49;19.30;99.90
45207;DHT22;30950;53.086;21.576;2022-08-27T02:47:16;19.20;99.90
45207;DHT22;30950;53.086;21.576;2022-08-27T02:49:44;19.30;99.90
45207;DHT22;30950;53.086;21.576;2022-08-27T02:52:12;19.20;99.90
45207;DHT22;30950;53.086;21.576;2022-08-27T02:54:40;19.20;99.90
45207;DHT22;30950;53.086;21.576;2022-08-27T02:57:07;19.20;99.90
45207;DHT22;30950;53.086;21.576;2022-08-27T02:59:35;19.10;99.90
45207;DHT22;30950;53.086;21.576;2022-08-27T03:02:03;19.10;99.90
45207;DHT22;30950;53.086;21.576;2022-08-27T03:04:31;19.10;99.90
45207;DHT22;30950;53.086;21.576;2022-08-27T03:06:58;19.10;99.90
45207;DHT22;30950;53.086;21.576;2022-08-27T03:09:26;19.10;99.90
45207;DHT22;30950;53.086;21.576;2022-08-27T03:11:54;19.00;99.90
45207;DHT22;30950;53.086;21.576;2022-08-27T03:14:21;19.00;99.90
45207;DHT22;30950;53.086;21.576;2022-08-27T03:16:48;19.00;99.90
45207;DHT22;30950;53.086;21.576;2022-08-27T03:19:16;19.00;99.90
45207;DHT22;30950;53.086;21.576;2022-08-27T03:21:49;19.00;99.90
45207;DHT22;30950;53.086;21.576;2022-08-27T03:24:21;19.00;99.90
45207;DHT22;30950;53.086;21.576;2022-08-27T03:26:48;19.00;99.90
45207;DHT22;30950;53.086;21.576;2022-08-27T03:29:19;19.00;99.90
45207;DHT22;30950;53.086;21.576;2022-08-27T03:31:47;18.90;99.90
45207;DHT22;30950;53.086;21.576;2022-08-27T03:34:14;19.00;99.90
45207;DHT22;30950;53.086;21.576;2022-08-27T03:36:45;19.00;99.90
45207;DHT22;30950;53.086;21.576;2022-08-27T03:39:15;19.00;99.90
45207;DHT22;30950;53.086;21.576;2022-08-27T03:41:42;19.00;99.90
45207;DHT22;30950;53.086;21.576;2022-08-27T03:44:24;19.00;99.90
45207;DHT22;30950;53.086;21.576;2022-08-27T03:46:51;18.90;99.90
45207;DHT22;30950;53.086;21.576;2022-08-27T03:49:19;18.80;99.90
45207;DHT22;30950;53.086;21.576;2022-08-27T03:51:49;18.80;99.90
45207;DHT22;30950;53.086;21.576;2022-08-27T03:54:17;18.80;99.90
45207;DHT22;30950;53.086;21.576;2022-08-27T03:56:45;18.70;99.90
45207;DHT22;30950;53.086;21.576;2022-08-27T03:59:13;18.60;99.90
45207;DHT22;30950;53.086;21.576;2022-08-27T04:01:43;18.60;99.90
45207;DHT22;30950;53.086;21.576;2022-08-27T04:04:11;18.60;99.90
45207;DHT22;30950;53.086;21.576;2022-08-27T04:06:39;18.50;99.90
45207;DHT22;30950;53.086;21.576;2022-08-27T04:09:07;18.50;99.90
45207;DHT22;30950;53.086;21.576;2022-08-27T04:11:34;18.50;99.90
45207;DHT22;30950;53.086;21.576;2022-08-27T04:14:04;18.50;99.90
45207;DHT22;30950;53.086;21.576;2022-08-27T04:16:51;18.50;99.90
45207;DHT22;30950;53.086;21.576;2022-08-27T04:19:20;18.50;99.90
45207;DHT22;30950;53.086;21.576;2022-08-27T04:22:00;18.60;99.90
45207;DHT22;30950;53.086;21.576;2022-08-27T04:24:30;18.50;99.90
45207;DHT22;30950;53.086;21.576;2022-08-27T04:26:59;18.50;99.90
45207;DHT22;30950;53.086;21.576;2022-08-27T04:29:27;18.50;99.90
45207;DHT22;30950;53.086;21.576;2022-08-27T04:31:55;18.50;99.90
45207;DHT22;30950;53.086;21.576;2022-08-27T04:34:22;18.50;99.90
45207;DHT22;30950;53.086;21.576;2022-08-27T04:36:50;18.50;99.90
45207;DHT22;30950;53.086;21.576;2022-08-27T04:39:17;18.50;99.90
45207;DHT22;30950;53.086;21.576;2022-08-27T04:41:50;18.50;99.90
45207;DHT22;30950;53.086;21.576;2022-08-27T04:44:18;18.60;99.90
45207;DHT22;30950;53.086;21.576;2022-08-27T04:46:45;18.60;99.90
45207;DHT22;30950;53.086;21.576;2022-08-27T04:49:16;18.60;99.90
45207;DHT22;30950;53.086;21.576;2022-08-27T04:51:43;18.60;99.90
45207;DHT22;30950;53.086;21.576;2022-08-27T04:54:11;18.70;99.90
45207;DHT22;30950;53.086;21.576;2022-08-27T04:56:39;18.70;99.90
45207;DHT22;30950;53.086;21.576;2022-08-27T04:59:08;18.80;99.90
45207;DHT22;30950;53.086;21.576;2022-08-27T05:01:37;18.80;99.90
45207;DHT22;30950;53.086;21.576;2022-08-27T05:04:06;18.90;99.90
45207;DHT22;30950;53.086;21.576;2022-08-27T05:06:34;19.00;99.90
45207;DHT22;30950;53.086;21.576;2022-08-27T05:09:04;19.10;99.90
45207;DHT22;30950;53.086;21.576;2022-08-27T05:11:32;19.20;99.90
45207;DHT22;30950;53.086;21.576;2022-08-27T05:14:03;19.30;99.90
45207;DHT22;30950;53.086;21.576;2022-08-27T05:16:31;19.40;99.90
45207;DHT22;30950;53.086;21.576;2022-08-27T05:18:59;19.40;99.90
45207;DHT22;30950;53.086;21.576;2022-08-27T05:21:29;19.50;99.90
45207;DHT22;30950;53.086;21.576;2022-08-27T05:24:00;19.60;99.90
45207;DHT22;30950;53.086;21.576;2022-08-27T05:26:28;19.60;99.90
45207;DHT22;30950;53.086;21.576;2022-08-27T05:28:58;19.70;99.90
45207;DHT22;30950;53.086;21.576;2022-08-27T05:31:26;19.70;99.90
45207;DHT22;30950;53.086;21.576;2022-08-27T05:33:55;19.80;99.90
45207;DHT22;30950;53.086;21.576;2022-08-27T05:36:32;19.90;99.90
45207;DHT22;30950;53.086;21.576;2022-08-27T05:39:02;19.90;99.90
45207;DHT22;30950;53.086;21.576;2022-08-27T05:41:31;20.00;99.90
45207;DHT22;30950;53.086;21.576;2022-08-27T05:44:07;20.10;99.90
45207;DHT22;30950;53.086;21.576;2022-08-27T05:46:55;20.10;99.90
45207;DHT22;30950;53.086;21.576;2022-08-27T05:49:22;20.20;99.90
45207;DHT22;30950;53.086;21.576;2022-08-27T05:51:50;20.40;99.90
45207;DHT22;30950;53.086;21.576;2022-08-27T05:54:17;20.40;99.90
45207;DHT22;30950;53.086;21.576;2022-08-27T05:56:48;20.50;99.90
45207;DHT22;30950;53.086;21.576;2022-08-27T05:59:16;20.60;99.90
45207;DHT22;30950;53.086;21.576;2022-08-27T06:02:03;20.70;99.90
45207;DHT22;30950;53.086;21.576;2022-08-27T06:04:32;20.70;99.90
45207;DHT22;30950;53.086;21.576;2022-08-27T06:06:59;20.70;99.90
45207;DHT22;30950;53.086;21.576;2022-08-27T06:09:28;20.70;99.90
45207;DHT22;30950;53.086;21.576;2022-08-27T06:11:57;20.80;99.90
45207;DHT22;30950;53.086;21.576;2022-08-27T06:14:25;20.80;99.90
45207;DHT22;30950;53.086;21.576;2022-08-27T06:16:53;20.90;99.90
45207;DHT22;30950;53.086;21.576;2022-08-27T06:19:22;20.90;99.90
45207;DHT22;30950;53.086;21.576;2022-08-27T06:21:49;21.00;99.90
45207;DHT22;30950;53.086;21.576;2022-08-27T06:24:38;21.10;99.90
45207;DHT22;30950;53.086;21.576;2022-08-27T06:27:05;21.10;99.90
45207;DHT22;30950;53.086;21.576;2022-08-27T06:29:32;21.30;99.90
45207;DHT22;30950;53.086;21.576;2022-08-27T06:32:01;21.40;99.90
45207;DHT22;30950;53.086;21.576;2022-08-27T06:34:29;21.50;99.90
45207;DHT22;30950;53.086;21.576;2022-08-27T06:36:56;21.70;99.90
45207;DHT22;30950;53.086;21.576;2022-08-27T06:39:24;21.90;99.90
45207;DHT22;30950;53.086;21.576;2022-08-27T06:41:52;22.10;99.90
45207;DHT22;30950;53.086;21.576;2022-08-27T06:44:20;22.40;99.90
45207;DHT22;30950;53.086;21.576;2022-08-27T06:46:50;22.60;99.90
45207;DHT22;30950;53.086;21.576;2022-08-27T06:49:18;22.80;99.90
45207;DHT22;30950;53.086;21.576;2022-08-27T06:51:46;23.00;99.90
45207;DHT22;30950;53.086;21.576;2022-08-27T06:54:15;23.20;99.90
45207;DHT22;30950;53.086;21.576;2022-08-27T06:56:42;23.40;99.90
45207;DHT22;30950;53.086;21.576;2022-08-27T06:59:15;23.50;99.90
45207;DHT22;30950;53.086;21.576;2022-08-27T07:01:45;23.70;99.90
45207;DHT22;30950;53.086;21.576;2022-08-27T07:04:18;23.80;99.90
45207;DHT22;30950;53.086;21.576;2022-08-27T07:06:46;23.90;99.90
45207;DHT22;30950;53.086;21.576;2022-08-27T07:09:13;24.00;99.90
45207;DHT22;30950;53.086;21.576;2022-08-27T07:11:41;24.10;99.90
45207;DHT22;30950;53.086;21.576;2022-08-27T07:14:09;24.20;99.90
45207;DHT22;30950;53.086;21.576;2022-08-27T07:16:37;24.20;99.90
45207;DHT22;30950;53.086;21.576;2022-08-27T07:19:06;24.20;99.90
45207;DHT22;30950;53.086;21.576;2022-08-27T07:21:34;24.20;99.90
45207;DHT22;30950;53.086;21.576;2022-08-27T07:24:03;24.20;99.90
45207;DHT22;30950;53.086;21.576;2022-08-27T07:26:34;24.20;99.90
45207;DHT22;30950;53.086;21.576;2022-08-27T07:29:06;24.20;99.90
45207;DHT22;30950;53.086;21.576;2022-08-27T07:31:34;24.20;99.90
45207;DHT22;30950;53.086;21.576;2022-08-27T07:34:03;24.20;99.90
45207;DHT22;30950;53.086;21.576;2022-08-27T07:36:31;24.20;99.90
45207;DHT22;30950;53.086;21.576;2022-08-27T07:38:59;24.30;99.90
45207;DHT22;30950;53.086;21.576;2022-08-27T07:41:29;24.30;99.40
45207;DHT22;30950;53.086;21.576;2022-08-27T07:44:01;24.40;98.70
45207;DHT22;30950;53.086;21.576;2022-08-27T07:46:54;24.40;98.50
45207;DHT22;30950;53.086;21.576;2022-08-27T07:49:22;24.50;97.50
45207;DHT22;30950;53.086;21.576;2022-08-27T07:51:50;24.50;96.60
45207;DHT22;30950;53.086;21.576;2022-08-27T07:54:20;24.60;96.30
45207;DHT22;30950;53.086;21.576;2022-08-27T07:56:48;24.70;96.10
45207;DHT22;30950;53.086;21.576;2022-08-27T07:59:23;24.70;95.90
45207;DHT22;30950;53.086;21.576;2022-08-27T08:01:53;24.80;95.40
45207;DHT22;30950;53.086;21.576;2022-08-27T08:04:21;24.90;95.40
45207;DHT22;30950;53.086;21.576;2022-08-27T08:06:50;25.00;94.10
45207;DHT22;30950;53.086;21.576;2022-08-27T08:09:18;25.10;94.10
45207;DHT22;30950;53.086;21.576;2022-08-27T08:11:46;25.10;93.80
45207;DHT22;30950;53.086;21.576;2022-08-27T08:14:13;25.20;93.10
45207;DHT22;30950;53.086;21.576;2022-08-27T08:16:41;25.20;92.40
45207;DHT22;30950;53.086;21.576;2022-08-27T08:19:08;25.30;92.00
45207;DHT22;30950;53.086;21.576;2022-08-27T08:21:36;25.40;91.30
45207;DHT22;30950;53.086;21.576;2022-08-27T08:24:04;25.50;90.80
45207;DHT22;30950;53.086;21.576;2022-08-27T08:26:33;25.50;90.10
45207;DHT22;30950;53.086;21.576;2022-08-27T08:29:01;25.70;89.70
45207;DHT22;30950;53.086;21.576;2022-08-27T08:31:31;25.70;88.80
45207;DHT22;30950;53.086;21.576;2022-08-27T08:33:58;25.80;88.10
45207;DHT22;30950;53.086;21.576;2022-08-27T08:36:26;25.90;87.60
45207;DHT22;30950;53.086;21.576;2022-08-27T08:38:53;26.00;87.80
45207;DHT22;30950;53.086;21.576;2022-08-27T08:41:47;26.10;85.90
45207;DHT22;30950;53.086;21.576;2022-08-27T08:44:35;26.20;84.50
45207;DHT22;30950;53.086;21.576;2022-08-27T08:49:54;26.30;83.60
45207;DHT22;30950;53.086;21.576;2022-08-27T08:57:57;26.60;76.30
45207;DHT22;30950;53.086;21.576;2022-08-27T09:00:27;26.80;75.40
45207;DHT22;30950;53.086;21.576;2022-08-27T09:02:54;26.90;75.20
45207;DHT22;30950;53.086;21.576;2022-08-27T09:05:22;27.10;73.70
45207;DHT22;30950;53.086;21.576;2022-08-27T09:11:29;27.30;72.20
45207;DHT22;30950;53.086;21.576;2022-08-27T09:13:50;27.40;72.10
45207;DHT22;30950;53.086;21.576;2022-08-27T09:16:18;27.60;71.10
45207;DHT22;30950;53.086;21.576;2022-08-27T09:18:46;27.60;69.60
45207;DHT22;30950;53.086;21.576;2022-08-27T09:26:37;28.00;65.80
45207;DHT22;30950;53.086;21.576;2022-08-27T09:29:08;28.10;65.60
45207;DHT22;30950;53.086;21.576;2022-08-27T09:34:21;28.30;65.20
45207;DHT22;30950;53.086;21.576;2022-08-27T09:37:06;28.50;65.10
45207;DHT22;30950;53.086;21.576;2022-08-27T09:39:54;28.60;61.50
45207;DHT22;30950;53.086;21.576;2022-08-27T09:44:59;28.80;62.80
45207;DHT22;30950;53.086;21.576;2022-08-27T09:47:26;28.90;62.50
45207;DHT22;30950;53.086;21.576;2022-08-27T09:50:07;29.00;61.80
45207;DHT22;30950;53.086;21.576;2022-08-27T09:52:52;29.20;61.10
45207;DHT22;30950;53.086;21.576;2022-08-27T09:55:42;29.30;59.30
45207;DHT22;30950;53.086;21.576;2022-08-27T10:01:27;29.50;59.20
45207;DHT22;30950;53.086;21.576;2022-08-27T10:04:12;29.60;59.20
45207;DHT22;30950;53.086;21.576;2022-08-27T10:06:46;29.80;57.80
45207;DHT22;30950;53.086;21.576;2022-08-27T10:09:32;29.80;54.80
45207;DHT22;30950;53.086;21.576;2022-08-27T10:12:16;29.90;54.70
45207;DHT22;30950;53.086;21.576;2022-08-27T10:14:51;30.00;54.20
45207;DHT22;30950;53.086;21.576;2022-08-27T10:23:37;30.40;53.90
45207;DHT22;30950;53.086;21.576;2022-08-27T10:26:19;30.60;53.20
45207;DHT22;30950;53.086;21.576;2022-08-27T10:29:19;30.80;51.80
45207;DHT22;30950;53.086;21.576;2022-08-27T10:37:47;31.10;47.40
45207;DHT22;30950;53.086;21.576;2022-08-27T10:42:48;31.60;48.30
45207;DHT22;30950;53.086;21.576;2022-08-27T10:45:35;32.10;47.90
45207;DHT22;30950;53.086;21.576;2022-08-27T10:48:28;32.90;47.50
45207;DHT22;30950;53.086;21.576;2022-08-27T10:53:51;33.70;44.00
45207;DHT22;30950;53.086;21.576;2022-08-27T10:56:50;33.70;43.60
45207;DHT22;30950;53.086;21.576;2022-08-27T11:02:34;33.10;42.20
45207;DHT22;30950;53.086;21.576;2022-08-27T11:05:11;32.80;42.50
45207;DHT22;30950;53.086;21.576;2022-08-27T11:07:54;32.50;42.70
45207;DHT22;30950;53.086;21.576;2022-08-27T11:10:29;32.30;42.40
45207;DHT22;30950;53.086;21.576;2022-08-27T11:13:03;32.10;43.10
45207;DHT22;30950;53.086;21.576;2022-08-27T11:15:36;31.90;43.50
45207;DHT22;30950;53.086;21.576;2022-08-27T11:18:17;31.80;43.80
45207;DHT22;30950;53.086;21.576;2022-08-27T11:21:00;31.70;43.60
45207;DHT22;30950;53.086;21.576;2022-08-27T11:26:03;31.60;41.80
45207;DHT22;30950;53.086;21.576;2022-08-27T11:28:41;31.50;42.40
45207;DHT22;30950;53.086;21.576;2022-08-27T11:31:19;31.50;42.50
45207;DHT22;30950;53.086;21.576;2022-08-27T11:33:55;31.50;42.50
45207;DHT22;30950;53.086;21.576;2022-08-27T11:42:06;31.50;42.40
45207;DHT22;30950;53.086;21.576;2022-08-27T11:44:41;31.50;42.40
45207;DHT22;30950;53.086;21.576;2022-08-27T11:47:23;31.50;42.40
45207;DHT22;30950;53.086;21.576;2022-08-27T11:50:03;31.50;42.50
45207;DHT22;30950;53.086;21.576;2022-08-27T11:52:40;31.50;42.30
45207;DHT22;30950;53.086;21.576;2022-08-27T11:57:50;31.50;43.00
45207;DHT22;30950;53.086;21.576;2022-08-27T12:00:34;31.60;43.30
45207;DHT22;30950;53.086;21.576;2022-08-27T12:03:23;31.60;43.40
45207;DHT22;30950;53.086;21.576;2022-08-27T12:19:26;32.00;42.70
45207;DHT22;30950;53.086;21.576;2022-08-27T12:22:22;32.00;42.00
45207;DHT22;30950;53.086;21.576;2022-08-27T12:24:53;32.00;41.70
45207;DHT22;30950;53.086;21.576;2022-08-27T12:32:48;32.00;42.10
45207;DHT22;30950;53.086;21.576;2022-08-27T12:35:25;32.10;40.50
45207;DHT22;30950;53.086;21.576;2022-08-27T12:40:56;32.30;40.50
45207;DHT22;30950;53.086;21.576;2022-08-27T12:43:37;32.30;40.50
45207;DHT22;30950;53.086;21.576;2022-08-27T12:46:17;32.40;40.00
45207;DHT22;30950;53.086;21.576;2022-08-27T12:48:46;32.50;40.50
45207;DHT22;30950;53.086;21.576;2022-08-27T12:51:25;32.60;40.70
45207;DHT22;30950;53.086;21.576;2022-08-27T12:59:36;33.30;40.40
45207;DHT22;30950;53.086;21.576;2022-08-27T13:04:42;34.80;38.80
45207;DHT22;30950;53.086;21.576;2022-08-27T13:07:10;35.50;38.50
45207;DHT22;30950;53.086;21.576;2022-08-27T13:09:38;35.90;36.50
45207;DHT22;30950;53.086;21.576;2022-08-27T13:12:14;36.30;36.80
45207;DHT22;30950;53.086;21.576;2022-08-27T13:14:43;36.90;35.80
45207;DHT22;30950;53.086;21.576;2022-08-27T13:17:20;37.40;35.60
45207;DHT22;30950;53.086;21.576;2022-08-27T13:19:56;37.50;34.30
45207;DHT22;30950;53.086;21.576;2022-08-27T13:22:30;37.90;34.00
45207;DHT22;30950;53.086;21.576;2022-08-27T13:25:16;38.20;36.10
45207;DHT22;30950;53.086;21.576;2022-08-27T13:27:54;38.50;34.20
45207;DHT22;30950;53.086;21.576;2022-08-27T13:30:22;38.80;33.70
45207;DHT22;30950;53.086;21.576;2022-08-27T13:33:07;38.90;34.30
45207;DHT22;30950;53.086;21.576;2022-08-27T13:35:36;39.30;34.20
45207;DHT22;30950;53.086;21.576;2022-08-27T13:38:07;39.50;34.10
45207;DHT22;30950;53.086;21.576;2022-08-27T13:41:00;39.80;34.00
45207;DHT22;30950;53.086;21.576;2022-08-27T13:43:35;40.10;33.00
45207;DHT22;30950;53.086;21.576;2022-08-27T13:46:06;40.00;32.20
45207;DHT22;30950;53.086;21.576;2022-08-27T13:48:39;39.90;32.10
45207;DHT22;30950;53.086;21.576;2022-08-27T13:51:07;39.70;31.40
45207;DHT22;30950;53.086;21.576;2022-08-27T13:53:36;39.60;31.70
45207;DHT22;30950;53.086;21.576;2022-08-27T13:56:29;39.60;32.30
45207;DHT22;30950;53.086;21.576;2022-08-27T14:04:42;40.30;31.40
45207;DHT22;30950;53.086;21.576;2022-08-27T14:07:11;40.40;31.60
45207;DHT22;30950;53.086;21.576;2022-08-27T14:12:30;40.30;31.50
45207;DHT22;30950;53.086;21.576;2022-08-27T14:15:21;40.20;32.00
45207;DHT22;30950;53.086;21.576;2022-08-27T14:17:50;40.20;31.70
45207;DHT22;30950;53.086;21.576;2022-08-27T14:20:19;39.90;31.60
45207;DHT22;30950;53.086;21.576;2022-08-27T14:22:47;39.60;31.40
45207;DHT22;30950;53.086;21.576;2022-08-27T14:25:16;39.30;31.30
45207;DHT22;30950;53.086;21.576;2022-08-27T14:27:50;39.20;31.90
45207;DHT22;30950;53.086;21.576;2022-08-27T14:30:23;38.90;31.80
45207;DHT22;30950;53.086;21.576;2022-08-27T14:32:59;38.60;32.00
45207;DHT22;30950;53.086;21.576;2022-08-27T14:35:32;38.20;31.70
45207;DHT22;30950;53.086;21.576;2022-08-27T14:38:20;37.80;31.40
45207;DHT22;30950;53.086;21.576;2022-08-27T14:40:50;37.20;32.00
45207;DHT22;30950;53.086;21.576;2022-08-27T14:43:19;36.80;32.30
45207;DHT22;30950;53.086;21.576;2022-08-27T14:45:50;36.50;32.70
45207;DHT22;30950;53.086;21.576;2022-08-27T14:48:21;36.10;32.60
45207;DHT22;30950;53.086;21.576;2022-08-27T14:50:55;35.90;33.00
45207;DHT22;30950;53.086;21.576;2022-08-27T14:53:23;35.60;32.90
45207;DHT22;30950;53.086;21.576;2022-08-27T14:55:51;35.50;33.80
45207;DHT22;30950;53.086;21.576;2022-08-27T14:58:19;35.40;33.70
45207;DHT22;30950;53.086;21.576;2022-08-27T15:00:47;35.20;33.40
45207;DHT22;30950;53.086;21.576;2022-08-27T15:03:14;35.10;33.60
45207;DHT22;30950;53.086;21.576;2022-08-27T15:05:42;35.10;34.00
45207;DHT22;30950;53.086;21.576;2022-08-27T15:08:09;35.00;34.10
45207;DHT22;30950;53.086;21.576;2022-08-27T15:10:39;35.00;34.50
45207;DHT22;30950;53.086;21.576;2022-08-27T15:13:07;35.00;34.60
45207;DHT22;30950;53.086;21.576;2022-08-27T15:15:37;35.00;34.40
45207;DHT22;30950;53.086;21.576;2022-08-27T15:18:05;35.00;34.20
45207;DHT22;30950;53.086;21.576;2022-08-27T15:20:33;34.90;34.30
45207;DHT22;30950;53.086;21.576;2022-08-27T15:23:00;34.80;34.80
45207;DHT22;30950;53.086;21.576;2022-08-27T15:25:28;34.80;34.40
45207;DHT22;30950;53.086;21.576;2022-08-27T15:27:57;34.80;34.60
45207;DHT22;30950;53.086;21.576;2022-08-27T15:30:27;34.80;34.40
45207;DHT22;30950;53.086;21.576;2022-08-27T15:32:55;34.80;34.40
45207;DHT22;30950;53.086;21.576;2022-08-27T15:35:25;34.70;34.80
45207;DHT22;30950;53.086;21.576;2022-08-27T15:37:54;34.80;34.30
45207;DHT22;30950;53.086;21.576;2022-08-27T15:40:24;34.60;34.10
45207;DHT22;30950;53.086;21.576;2022-08-27T15:42:59;34.60;34.20
45207;DHT22;30950;53.086;21.576;2022-08-27T15:45:29;34.60;34.20
45207;DHT22;30950;53.086;21.576;2022-08-27T15:47:58;34.60;34.60
45207;DHT22;30950;53.086;21.576;2022-08-27T15:50:27;34.60;34.60
45207;DHT22;30950;53.086;21.576;2022-08-27T15:52:58;34.60;34.40
45207;DHT22;30950;53.086;21.576;2022-08-27T15:55:29;34.50;34.40
45207;DHT22;30950;53.086;21.576;2022-08-27T15:57:58;34.40;34.40
45207;DHT22;30950;53.086;21.576;2022-08-27T16:00:26;34.30;34.80
45207;DHT22;30950;53.086;21.576;2022-08-27T16:02:55;34.20;34.50
45207;DHT22;30950;53.086;21.576;2022-08-27T16:05:25;34.10;34.70
45207;DHT22;30950;53.086;21.576;2022-08-27T16:07:53;34.00;35.00
45207;DHT22;30950;53.086;21.576;2022-08-27T16:10:21;33.90;35.20
45207;DHT22;30950;53.086;21.576;2022-08-27T16:12:48;33.80;35.40
45207;DHT22;30950;53.086;21.576;2022-08-27T16:15:16;33.60;35.50
45207;DHT22;30950;53.086;21.576;2022-08-27T16:17:43;33.50;35.90
45207;DHT22;30950;53.086;21.576;2022-08-27T16:20:13;33.30;36.10
45207;DHT22;30950;53.086;21.576;2022-08-27T16:22:41;33.20;36.30
45207;DHT22;30950;53.086;21.576;2022-08-27T16:25:10;33.00;36.30
45207;DHT22;30950;53.086;21.576;2022-08-27T16:27:44;32.80;36.20
45207;DHT22;30950;53.086;21.576;2022-08-27T16:30:12;32.60;36.20
45207;DHT22;30950;53.086;21.576;2022-08-27T16:32:39;32.50;36.40
45207;DHT22;30950;53.086;21.576;2022-08-27T16:35:06;32.30;36.50
45207;DHT22;30950;53.086;21.576;2022-08-27T16:37:35;32.10;37.10
45207;DHT22;30950;53.086;21.576;2022-08-27T16:40:02;32.00;37.20
45207;DHT22;30950;53.086;21.576;2022-08-27T16:42:30;31.90;37.50
45207;DHT22;30950;53.086;21.576;2022-08-27T16:44:59;31.70;37.60
45207;DHT22;30950;53.086;21.576;2022-08-27T16:47:27;31.50;37.80
45207;DHT22;30950;53.086;21.576;2022-08-27T16:49:54;31.40;38.00
45207;DHT22;30950;53.086;21.576;2022-08-27T16:52:52;31.20;38.20
45207;DHT22;30950;53.086;21.576;2022-08-27T16:55:19;31.00;38.40
45207;DHT22;30950;53.086;21.576;2022-08-27T16:57:46;30.80;38.70
45207;DHT22;30950;53.086;21.576;2022-08-27T17:00:13;30.60;38.90
45207;DHT22;30950;53.086;21.576;2022-08-27T17:02:41;30.40;39.10
45207;DHT22;30950;53.086;21.576;2022-08-27T17:05:08;30.20;39.40
45207;DHT22;30950;53.086;21.576;2022-08-27T17:07:56;30.10;39.90
45207;DHT22;30950;53.086;21.576;2022-08-27T17:10:27;29.90;40.20
45207;DHT22;30950;53.086;21.576;2022-08-27T17:12:59;29.60;40.30
45207;DHT22;30950;53.086;21.576;2022-08-27T17:15:26;29.40;40.50
45207;DHT22;30950;53.086;21.576;2022-08-27T17:17:53;29.20;41.10
45207;DHT22;30950;53.086;21.576;2022-08-27T17:20:20;29.10;41.50
45207;DHT22;30950;53.086;21.576;2022-08-27T17:22:48;28.90;41.60